createdAt,value
2023-05-05T00:03:16.645Z,19.00
2023-05-05T00:08:18.791Z,19.00
2023-05-05T00:13:21.625Z,18.90
2023-05-05T00:18:23.702Z,18.90
2023-05-05T00:23:25.802Z,18.90
2023-05-05T00:28:27.756Z,18.90
2023-05-05T00:33:29.729Z,18.90
2023-05-05T00:38:31.816Z,18.90
2023-05-05T00:43:33.751Z,18.90
2023-05-05T00:48:35.884Z,18.90
2023-05-05T00:53:39.756Z,18.90
2023-05-05T00:58:44.954Z,18.90
2023-05-05T01:03:47.054Z,18.90
2023-05-05T01:09:01.691Z,18.80
2023-05-05T01:14:14.641Z,18.80
2023-05-05T01:19:25.603Z,18.70
2023-05-05T01:24:59.605Z,18.50
2023-05-05T01:30:17.652Z,18.50
2023-05-05T01:35:45.841Z,18.50
2023-05-05T01:40:52.267Z,18.40
2023-05-05T01:45:55.535Z,18.40
2023-05-05T01:50:58.868Z,18.30
2023-05-05T01:56:02.654Z,18.30
2023-05-05T02:01:05.670Z,18.20
2023-05-05T02:06:10.129Z,18.20
2023-05-05T02:11:12.872Z,18.10
2023-05-05T02:16:16.155Z,18.00
2023-05-05T02:21:18.384Z,17.90
2023-05-05T02:26:22.001Z,17.90
2023-05-05T02:31:26.986Z,17.90
2023-05-05T02:36:32.661Z,17.90
2023-05-05T02:41:39.374Z,17.80
2023-05-05T02:46:47.910Z,17.90
2023-05-05T02:51:50.521Z,17.90
2023-05-05T02:56:59.500Z,17.90
2023-05-05T03:02:17.148Z,17.90
2023-05-05T03:07:42.679Z,17.80
2023-05-05T03:12:56.629Z,17.80
2023-05-05T03:18:08.147Z,17.70
2023-05-05T03:23:10.763Z,17.60
2023-05-05T03:28:17.301Z,17.60
2023-05-05T03:33:19.729Z,17.60
2023-05-05T03:38:22.262Z,17.60
2023-05-05T03:43:24.437Z,17.60
2023-05-05T03:48:27.272Z,17.60
2023-05-05T03:53:29.746Z,17.50
2023-05-05T03:58:32.182Z,17.50
2023-05-05T04:03:34.466Z,17.50
2023-05-05T04:08:36.861Z,17.60
2023-05-05T04:13:39.022Z,17.50
2023-05-05T04:18:41.403Z,17.50
2023-05-05T04:23:43.640Z,17.50
2023-05-05T04:28:46.222Z,17.40
2023-05-05T04:33:50.152Z,17.50
2023-05-05T04:38:52.500Z,17.40
2023-05-05T04:43:57.530Z,17.40
2023-05-05T04:49:06.942Z,17.20
2023-05-05T04:54:09.940Z,17.30
2023-05-05T04:59:14.322Z,17.30
2023-05-05T05:04:18.903Z,17.30
2023-05-05T05:09:21.794Z,17.40
2023-05-05T05:14:25.047Z,17.40
2023-05-05T05:19:27.728Z,17.40
2023-05-05T05:24:30.790Z,17.50
2023-05-05T05:29:38.727Z,17.50
2023-05-05T05:40:38.990Z,17.80
2023-05-05T05:45:42.329Z,17.90
2023-05-05T06:08:35.675Z,18.10
2023-05-05T06:13:38.653Z,18.20
2023-05-05T06:18:47.824Z,18.30
2023-05-05T06:23:56.296Z,18.30
2023-05-05T06:40:57.636Z,18.60
2023-05-05T06:46:06.078Z,18.60
2023-05-05T06:51:43.787Z,18.70
2023-05-05T06:56:57.522Z,18.70
2023-05-05T07:02:04.715Z,18.80
2023-05-05T07:14:47.098Z,19.10
2023-05-05T07:20:00.764Z,19.20
2023-05-05T07:25:08.666Z,19.30
2023-05-05T07:30:19.094Z,19.50
2023-05-05T08:39:04.449Z,21.60
2023-05-05T09:24:11.463Z,23.00
2023-05-05T09:29:20.926Z,23.40
2023-05-05T09:34:22.778Z,23.70
2023-05-05T09:39:24.662Z,23.90
2023-05-05T09:44:38.191Z,24.20
2023-05-05T09:49:40.237Z,24.40
2023-05-05T09:54:43.147Z,24.60
2023-05-05T09:59:58.738Z,24.80
2023-05-05T10:05:18.319Z,25.00
2023-05-05T10:10:20.462Z,25.20
2023-05-05T10:15:22.884Z,25.40
2023-05-05T10:20:26.160Z,25.60
2023-05-05T10:25:31.548Z,25.80
2023-05-05T10:30:40.233Z,26.00
2023-05-05T10:35:45.893Z,26.30
2023-05-05T10:40:48.922Z,26.40
2023-05-05T10:45:51.154Z,26.50
2023-05-05T10:51:01.795Z,26.60
2023-05-05T10:56:11.167Z,26.70
2023-05-05T11:01:36.967Z,26.70
2023-05-05T11:06:38.876Z,26.60
2023-05-05T11:17:47.034Z,26.80
2023-05-05T11:23:07.508Z,27.00
2023-05-05T11:28:32.741Z,27.20
2023-05-05T11:33:39.233Z,27.30
2023-05-05T11:38:57.477Z,27.40
2023-05-05T11:44:09.140Z,27.60
2023-05-05T11:49:11.044Z,27.70
2023-05-05T11:54:20.237Z,27.90
2023-05-05T11:59:22.904Z,27.90
2023-05-05T12:04:24.884Z,27.70
2023-05-05T12:09:27.319Z,27.70
2023-05-05T12:14:29.137Z,27.70
2023-05-05T12:19:33.604Z,27.70
2023-05-05T12:24:35.482Z,27.60
2023-05-05T12:29:37.542Z,27.80
2023-05-05T12:34:39.463Z,27.90
2023-05-05T12:39:41.274Z,28.20
2023-05-05T12:44:44.297Z,28.40
2023-05-05T12:49:50.902Z,28.60
2023-05-05T12:54:56.183Z,28.70
2023-05-05T12:59:58.338Z,28.40
2023-05-05T13:05:00.362Z,27.90
2023-05-05T13:10:10.818Z,27.70
2023-05-05T13:15:12.924Z,27.70
2023-05-05T13:20:15.346Z,27.60
2023-05-05T13:25:17.251Z,27.70
2023-05-05T13:30:20.648Z,27.90
2023-05-05T13:35:22.992Z,27.90
2023-05-05T13:40:25.963Z,28.00
2023-05-05T13:45:28.018Z,28.10
2023-05-05T13:50:29.866Z,28.20
2023-05-05T13:55:31.791Z,28.30
2023-05-05T14:00:34.850Z,28.50
2023-05-05T14:05:38.772Z,28.60
2023-05-05T14:10:40.615Z,28.50
2023-05-05T14:15:42.634Z,28.60
2023-05-05T14:20:44.493Z,28.80
2023-05-05T14:25:46.455Z,28.70
2023-05-05T14:30:48.290Z,28.80
2023-05-05T14:35:50.218Z,29.10
2023-05-05T14:40:52.084Z,29.20
2023-05-05T14:45:54.083Z,29.20
2023-05-05T14:50:55.938Z,29.30
2023-05-05T14:55:57.754Z,29.20
2023-05-05T15:01:00.500Z,29.10
2023-05-05T15:06:02.366Z,29.20
2023-05-05T15:11:04.458Z,29.10
2023-05-05T15:16:10.299Z,29.00
2023-05-05T15:21:12.150Z,29.00
2023-05-05T15:26:13.976Z,28.90
2023-05-05T15:31:15.996Z,28.90
2023-05-05T15:36:22.374Z,28.80
2023-05-05T15:41:32.998Z,28.80
2023-05-05T15:46:34.930Z,28.70
2023-05-05T15:51:36.880Z,28.50
2023-05-05T15:56:38.776Z,28.30
2023-05-05T16:01:41.114Z,28.00
2023-05-05T16:06:43.185Z,27.70
2023-05-05T16:11:46.438Z,27.50
2023-05-05T16:16:48.529Z,27.10
2023-05-05T16:21:50.398Z,25.90
2023-05-05T16:26:53.070Z,24.60
2023-05-05T16:32:14.232Z,23.70
2023-05-05T16:49:29.107Z,22.30
2023-05-05T16:54:30.986Z,22.10
2023-05-05T16:59:32.895Z,22.00
2023-05-05T17:04:37.590Z,21.90
2023-05-05T17:09:39.448Z,22.00
2023-05-05T17:14:41.873Z,21.90
2023-05-05T17:19:44.878Z,21.90
2023-05-05T17:24:46.802Z,22.00
2023-05-05T17:29:48.717Z,21.90
2023-05-05T17:34:50.637Z,21.70
2023-05-05T17:39:52.602Z,21.70
2023-05-05T17:44:54.480Z,21.70
2023-05-05T17:49:57.116Z,21.70
2023-05-05T17:54:59.203Z,21.70
2023-05-05T18:00:03.735Z,21.70
2023-05-05T18:05:14.396Z,21.80
2023-05-05T18:10:16.699Z,21.80
2023-05-05T18:15:18.646Z,21.70
2023-05-05T18:20:20.611Z,21.80
2023-05-05T18:25:23.547Z,21.60
2023-05-05T18:30:25.524Z,21.60
2023-05-05T18:35:28.315Z,21.60
2023-05-05T18:40:30.168Z,21.60
2023-05-05T18:45:32.157Z,21.50
2023-05-05T18:50:34.160Z,21.50
2023-05-05T18:55:36.318Z,21.40
2023-05-05T19:00:38.360Z,21.50
2023-05-05T19:05:40.746Z,21.50
2023-05-05T19:10:42.643Z,21.60
2023-05-05T19:15:44.759Z,21.50
2023-05-05T19:20:46.680Z,21.50
2023-05-05T19:25:52.186Z,21.50
2023-05-05T19:30:54.229Z,21.40
2023-05-05T19:35:56.592Z,21.40
2023-05-05T19:40:58.456Z,21.40
2023-05-05T19:46:00.417Z,21.30
2023-05-05T19:51:02.371Z,21.30
2023-05-05T19:56:04.943Z,21.20
2023-05-05T20:01:07.010Z,21.10
2023-05-05T20:06:09.010Z,21.10
2023-05-05T20:11:10.922Z,21.10
2023-05-05T20:16:13.244Z,21.00
2023-05-05T20:21:16.594Z,21.10
2023-05-05T20:26:18.680Z,21.00
2023-05-05T20:31:20.638Z,21.00
2023-05-05T20:36:22.959Z,20.80
2023-05-05T20:41:25.036Z,20.80
2023-05-05T20:46:26.899Z,20.80
2023-05-05T20:51:31.634Z,20.70
2023-05-05T20:56:33.635Z,20.80
2023-05-05T21:01:35.643Z,20.80
2023-05-05T21:06:38.292Z,20.70
2023-05-05T21:11:40.172Z,20.60
2023-05-05T21:16:42.658Z,20.50
2023-05-05T21:21:44.598Z,20.40
2023-05-05T21:26:46.599Z,20.20
2023-05-05T21:31:48.598Z,20.20
2023-05-05T21:36:50.569Z,20.10
2023-05-05T21:41:52.724Z,20.00
2023-05-05T21:46:55.053Z,19.90
2023-05-05T21:51:57.008Z,19.80
2023-05-05T21:56:59.042Z,19.80
2023-05-05T22:02:00.986Z,19.80
2023-05-05T22:07:03.005Z,19.70
2023-05-05T22:12:05.200Z,19.70
2023-05-05T22:17:07.224Z,19.60
2023-05-05T22:22:09.125Z,19.60
2023-05-05T22:27:11.581Z,19.50
2023-05-05T22:32:13.583Z,19.50
2023-05-05T22:37:15.748Z,19.40
2023-05-05T22:42:17.655Z,19.40
2023-05-05T22:47:19.516Z,19.20
2023-05-05T22:52:21.474Z,19.20
2023-05-05T22:57:23.405Z,19.10
2023-05-05T23:02:26.648Z,19.10
2023-05-05T23:07:28.733Z,19.10
2023-05-05T23:12:30.654Z,19.00
2023-05-05T23:17:32.667Z,18.90
2023-05-05T23:22:34.513Z,18.90
2023-05-05T23:27:37.912Z,19.00
2023-05-05T23:32:39.790Z,18.90
2023-05-05T23:37:41.660Z,19.00
2023-05-05T23:42:43.512Z,18.90
2023-05-05T23:47:45.417Z,18.80
2023-05-05T23:52:47.248Z,18.80
2023-05-05T23:57:51.474Z,18.80
